createdAt,value
2022-09-09T00:00:17.897Z,15.80
2022-09-09T00:02:55.473Z,15.80
2022-09-09T00:05:34.992Z,15.70
2022-09-09T00:08:05.866Z,15.70
2022-09-09T00:10:40.471Z,15.80
2022-09-09T00:13:19.890Z,15.80
2022-09-09T00:16:00.311Z,15.90
2022-09-09T00:18:34.796Z,15.80
2022-09-09T00:21:09.227Z,15.80
2022-09-09T00:23:41.377Z,15.70
2022-09-09T00:26:17.122Z,15.70
2022-09-09T00:28:55.060Z,15.70
2022-09-09T00:31:29.312Z,15.70
2022-09-09T00:34:03.634Z,15.50
2022-09-09T00:36:35.418Z,15.50
2022-09-09T00:39:05.100Z,15.40
2022-09-09T00:41:50.289Z,15.40
2022-09-09T00:44:30.327Z,15.30
2022-09-09T00:47:43.413Z,15.30
2022-09-09T00:50:34.658Z,15.40
2022-09-09T00:53:19.336Z,15.20
2022-09-09T00:55:51.368Z,15.00
2022-09-09T00:58:19.380Z,15.00
2022-09-09T01:00:52.200Z,15.10
2022-09-09T01:03:36.626Z,15.10
2022-09-09T01:06:17.042Z,15.00
2022-09-09T01:09:18.771Z,14.90
2022-09-09T01:11:57.981Z,15.00
2022-09-09T01:14:42.512Z,14.80
2022-09-09T01:17:18.242Z,15.00
2022-09-09T01:20:07.069Z,14.90
2022-09-09T01:22:39.033Z,14.90
2022-09-09T01:25:30.825Z,14.90
2022-09-09T01:28:04.188Z,14.70
2022-09-09T01:30:34.187Z,14.90
2022-09-09T01:33:03.575Z,14.90
2022-09-09T01:35:47.188Z,14.90
2022-09-09T01:38:16.070Z,14.70
2022-09-09T01:40:44.058Z,14.80
2022-09-09T01:43:13.453Z,14.80
2022-09-09T01:45:43.268Z,14.90
2022-09-09T01:48:11.375Z,14.80
2022-09-09T01:50:39.383Z,14.70
2022-09-09T01:53:08.362Z,14.60
2022-09-09T01:55:41.898Z,14.50
2022-09-09T01:58:25.761Z,14.40
2022-09-09T02:01:02.259Z,14.50
2022-09-09T02:03:35.515Z,14.60
2022-09-09T02:06:16.530Z,14.70
2022-09-09T02:08:49.794Z,14.60
2022-09-09T02:11:20.628Z,14.50
2022-09-09T02:13:53.860Z,14.50
2022-09-09T02:16:26.922Z,14.50
2022-09-09T02:19:00.480Z,14.50
2022-09-09T02:21:31.251Z,14.50
2022-09-09T02:24:05.479Z,14.60
2022-09-09T02:26:36.065Z,14.60
2022-09-09T02:29:10.344Z,14.60
2022-09-09T02:31:40.431Z,14.70
2022-09-09T02:34:11.868Z,14.70
2022-09-09T02:36:42.453Z,14.80
2022-09-09T02:39:12.277Z,14.80
2022-09-09T02:41:42.987Z,14.90
2022-09-09T02:44:16.207Z,14.80
2022-09-09T02:47:09.445Z,14.90
2022-09-09T02:49:50.450Z,14.90
2022-09-09T02:52:23.864Z,14.90
2022-09-09T02:55:02.105Z,14.90
2022-09-09T02:57:32.948Z,14.80
2022-09-09T03:00:03.718Z,14.80
2022-09-09T03:02:31.777Z,14.80
2022-09-09T03:04:59.839Z,14.80
2022-09-09T03:07:28.393Z,14.90
2022-09-09T03:09:56.379Z,14.90
2022-09-09T03:12:24.350Z,15.00
2022-09-09T03:14:52.564Z,14.80
2022-09-09T03:17:22.058Z,14.90
2022-09-09T03:19:50.552Z,15.00
2022-09-09T03:22:18.567Z,15.10
2022-09-09T03:24:47.619Z,15.10
2022-09-09T03:27:16.677Z,14.90
2022-09-09T03:29:45.891Z,14.90
2022-09-09T03:32:18.422Z,15.10
2022-09-09T03:34:48.346Z,15.10
2022-09-09T03:37:16.315Z,15.00
2022-09-09T03:39:44.307Z,15.00
2022-09-09T03:42:17.283Z,15.20
2022-09-09T03:44:47.325Z,15.20
2022-09-09T03:47:15.273Z,15.30
2022-09-09T03:49:43.240Z,15.30
2022-09-09T03:52:12.742Z,15.40
2022-09-09T03:54:43.429Z,15.40
2022-09-09T03:57:12.008Z,15.40
2022-09-09T03:59:39.973Z,15.20
2022-09-09T04:02:07.981Z,15.30
2022-09-09T04:04:36.010Z,15.30
2022-09-09T04:07:07.028Z,15.40
2022-09-09T04:09:36.506Z,15.30
2022-09-09T04:12:05.184Z,15.40
2022-09-09T04:14:33.161Z,15.40
2022-09-09T04:17:01.190Z,15.40
2022-09-09T04:19:29.111Z,15.30
2022-09-09T04:21:57.832Z,15.30
2022-09-09T04:24:28.429Z,15.30
2022-09-09T04:26:57.736Z,15.40
2022-09-09T04:29:25.810Z,15.40
2022-09-09T04:31:54.184Z,15.50
2022-09-09T04:34:22.189Z,15.50
2022-09-09T04:36:50.172Z,15.60
2022-09-09T04:39:18.105Z,15.50
2022-09-09T04:41:46.034Z,15.60
2022-09-09T04:44:15.371Z,15.60
2022-09-09T04:46:43.546Z,15.50
2022-09-09T04:49:15.051Z,15.40
2022-09-09T04:51:43.872Z,15.20
2022-09-09T04:54:12.668Z,15.20
2022-09-09T04:56:42.634Z,15.40
2022-09-09T04:59:10.801Z,15.40
2022-09-09T05:01:40.172Z,15.40
2022-09-09T05:04:09.409Z,15.40
2022-09-09T05:06:38.184Z,15.40
2022-09-09T05:09:06.167Z,15.50
2022-09-09T05:11:37.592Z,15.40
2022-09-09T05:14:05.771Z,15.40
2022-09-09T05:16:34.437Z,15.10
2022-09-09T05:19:04.604Z,15.20
2022-09-09T05:21:32.687Z,15.20
2022-09-09T05:24:01.476Z,15.20
2022-09-09T05:26:30.345Z,15.20
2022-09-09T05:28:59.958Z,15.10
2022-09-09T05:31:29.282Z,15.00
2022-09-09T05:34:00.986Z,15.00
2022-09-09T05:36:34.419Z,15.10
2022-09-09T05:39:02.553Z,15.00
2022-09-09T05:41:31.264Z,15.10
2022-09-09T05:43:59.916Z,15.10
2022-09-09T05:46:28.083Z,15.10
2022-09-09T05:48:56.820Z,15.20
2022-09-09T05:51:31.020Z,15.20
2022-09-09T05:54:00.534Z,15.30
2022-09-09T05:56:30.240Z,15.40
2022-09-09T05:59:00.963Z,15.60
2022-09-09T06:01:31.267Z,15.70
2022-09-09T06:04:00.690Z,15.80
2022-09-09T06:06:37.413Z,15.80
2022-09-09T06:09:10.590Z,15.80
2022-09-09T06:11:40.356Z,15.90
2022-09-09T06:14:08.967Z,16.00
2022-09-09T06:16:38.609Z,16.00
2022-09-09T06:19:07.437Z,16.10
2022-09-09T06:21:38.085Z,16.10
2022-09-09T06:24:09.226Z,16.20
2022-09-09T06:26:41.495Z,16.10
2022-09-09T06:29:10.487Z,15.90
2022-09-09T06:31:44.441Z,15.80
2022-09-09T06:34:18.110Z,15.90
2022-09-09T06:36:46.813Z,15.90
2022-09-09T06:39:16.439Z,16.00
2022-09-09T06:41:44.811Z,15.90
2022-09-09T06:44:13.620Z,16.00
2022-09-09T06:46:41.639Z,16.10
2022-09-09T06:49:10.569Z,16.40
2022-09-09T06:51:43.500Z,16.50
2022-09-09T06:54:13.196Z,16.60
2022-09-09T06:56:44.506Z,16.70
2022-09-09T06:59:13.340Z,16.60
2022-09-09T07:01:44.677Z,16.70
2022-09-09T07:04:14.423Z,16.80
2022-09-09T07:06:44.975Z,16.90
2022-09-09T07:09:15.883Z,17.10
2022-09-09T07:11:47.688Z,17.10
2022-09-09T07:14:16.651Z,17.10
2022-09-09T07:16:46.433Z,17.00
2022-09-09T07:19:15.571Z,17.10
2022-09-09T07:21:44.208Z,17.10
2022-09-09T07:24:13.722Z,17.20
2022-09-09T07:26:45.005Z,17.30
2022-09-09T07:29:18.500Z,17.30
2022-09-09T07:31:49.224Z,17.30
2022-09-09T07:34:21.286Z,17.10
2022-09-09T07:36:49.808Z,17.00
2022-09-09T07:39:18.804Z,17.00
2022-09-09T07:41:50.025Z,17.30
2022-09-09T07:44:22.182Z,17.40
2022-09-09T07:46:50.847Z,17.50
2022-09-09T07:49:24.404Z,17.70
2022-09-09T07:51:54.438Z,17.80
2022-09-09T07:54:24.426Z,17.70
2022-09-09T07:56:54.478Z,18.00
2022-09-09T07:59:22.650Z,18.50
2022-09-09T08:01:54.388Z,18.90
2022-09-09T08:04:24.628Z,19.20
2022-09-09T08:06:55.021Z,19.40
2022-09-09T08:09:25.934Z,19.50
2022-09-09T08:11:56.436Z,19.60
2022-09-09T08:14:25.008Z,19.60
2022-09-09T08:16:54.972Z,19.60
2022-09-09T08:19:25.254Z,19.30
2022-09-09T08:21:53.230Z,19.20
2022-09-09T08:24:21.483Z,19.00
2022-09-09T08:26:51.174Z,18.80
2022-09-09T08:29:21.007Z,18.70
2022-09-09T08:31:53.891Z,18.60
2022-09-09T08:34:22.332Z,18.90
2022-09-09T08:36:52.841Z,19.10
2022-09-09T08:39:23.782Z,19.20
2022-09-09T08:42:22.785Z,19.30
2022-09-09T08:45:08.104Z,19.40
2022-09-09T08:47:48.105Z,19.10
2022-09-09T08:50:25.547Z,19.20
2022-09-09T08:53:04.609Z,19.00
2022-09-09T08:55:42.386Z,19.10
2022-09-09T08:58:16.954Z,19.00
2022-09-09T09:01:02.911Z,19.00
2022-09-09T09:03:46.799Z,19.00
2022-09-09T09:06:31.836Z,19.10
2022-09-09T09:09:07.444Z,19.20
2022-09-09T09:11:41.551Z,19.30
2022-09-09T09:14:14.421Z,20.20
2022-09-09T09:16:55.529Z,20.70
2022-09-09T09:19:26.205Z,21.40
2022-09-09T09:22:03.872Z,22.40
2022-09-09T09:24:45.144Z,23.00
2022-09-09T09:27:16.594Z,22.70
2022-09-09T09:30:18.191Z,22.60
2022-09-09T09:32:38.241Z,22.50
2022-09-09T09:35:14.212Z,21.60
2022-09-09T09:40:34.168Z,23.10
2022-09-09T09:43:05.101Z,24.40
2022-09-09T09:45:46.778Z,25.50
2022-09-09T09:48:25.469Z,25.50
2022-09-09T09:50:56.437Z,23.90
2022-09-09T09:53:28.216Z,23.50
2022-09-09T09:56:00.429Z,23.50
2022-09-09T09:58:34.800Z,24.40
2022-09-09T10:01:03.790Z,24.60
2022-09-09T10:03:38.470Z,24.90
2022-09-09T10:06:07.085Z,24.50
2022-09-09T10:08:47.470Z,23.90
2022-09-09T10:11:35.300Z,23.90
2022-09-09T10:14:16.016Z,24.50
2022-09-09T10:17:05.187Z,25.00
2022-09-09T10:19:37.642Z,25.80
2022-09-09T10:22:18.185Z,26.50
2022-09-09T10:25:24.950Z,26.80
2022-09-09T10:28:15.715Z,26.70
2022-09-09T10:30:54.386Z,27.50
2022-09-09T10:33:35.271Z,27.20
2022-09-09T10:36:15.086Z,26.20
2022-09-09T10:38:45.275Z,25.40
2022-09-09T10:41:21.731Z,25.40
2022-09-09T10:44:20.377Z,25.20
2022-09-09T10:47:11.198Z,25.10
2022-09-09T10:50:08.102Z,25.70
2022-09-09T10:52:49.002Z,25.80
2022-09-09T10:55:20.728Z,26.70
2022-09-09T10:57:51.269Z,27.20
2022-09-09T11:00:23.227Z,26.60
2022-09-09T11:02:56.995Z,26.30
2022-09-09T11:05:34.859Z,25.90
2022-09-09T11:08:09.436Z,25.30
2022-09-09T11:10:43.399Z,24.90
2022-09-09T11:13:19.396Z,24.60
2022-09-09T11:15:53.814Z,24.60
2022-09-09T11:18:23.994Z,24.50
2022-09-09T11:21:02.408Z,24.00
2022-09-09T11:23:42.262Z,23.60
2022-09-09T11:26:18.727Z,23.60
2022-09-09T11:29:05.036Z,23.60
2022-09-09T11:31:52.560Z,23.40
2022-09-09T11:34:41.509Z,23.20
2022-09-09T11:37:27.174Z,23.10
2022-09-09T11:40:21.090Z,23.00
2022-09-09T11:42:50.831Z,22.90
2022-09-09T11:45:28.195Z,22.70
2022-09-09T11:47:57.738Z,22.60
2022-09-09T11:50:38.315Z,22.20
2022-09-09T11:53:23.659Z,22.20
2022-09-09T11:56:13.937Z,22.00
2022-09-09T11:58:47.345Z,21.80
2022-09-09T12:01:26.502Z,21.60
2022-09-09T12:04:11.866Z,21.60
2022-09-09T12:06:48.315Z,21.50
2022-09-09T12:09:25.411Z,21.40
2022-09-09T12:11:55.301Z,21.30
2022-09-09T12:14:37.928Z,21.20
2022-09-09T12:17:21.340Z,21.00
2022-09-09T12:19:50.131Z,20.70
2022-09-09T12:22:31.865Z,20.60
2022-09-09T12:25:12.592Z,20.70
2022-09-09T12:27:52.898Z,20.80
2022-09-09T12:30:22.496Z,20.90
2022-09-09T12:33:02.912Z,20.80
2022-09-09T12:35:32.529Z,21.00
2022-09-09T12:38:03.787Z,21.00
2022-09-09T12:40:36.105Z,21.30
2022-09-09T12:43:21.304Z,21.40
2022-09-09T12:45:51.356Z,21.70
2022-09-09T12:48:22.164Z,21.90
2022-09-09T12:50:53.136Z,22.00
2022-09-09T12:53:27.197Z,21.90
2022-09-09T12:56:00.189Z,21.70
2022-09-09T12:58:33.690Z,21.70
2022-09-09T13:01:06.075Z,21.60
2022-09-09T13:03:37.383Z,21.40
2022-09-09T13:06:15.904Z,21.50
2022-09-09T13:08:44.560Z,21.40
2022-09-09T13:11:18.147Z,21.10
2022-09-09T13:13:54.930Z,21.20
2022-09-09T13:16:32.564Z,21.40
2022-09-09T13:19:03.055Z,21.40
2022-09-09T13:21:36.514Z,21.60
2022-09-09T13:24:07.120Z,21.60
2022-09-09T13:26:35.781Z,21.50
2022-09-09T13:29:20.511Z,21.40
2022-09-09T13:31:48.715Z,21.20
2022-09-09T13:34:29.706Z,21.20
2022-09-09T13:37:03.521Z,20.90
2022-09-09T13:39:31.929Z,20.90
2022-09-09T13:42:00.424Z,20.90
2022-09-09T13:44:32.584Z,20.70
2022-09-09T13:47:10.238Z,20.50
2022-09-09T13:49:38.588Z,20.40
2022-09-09T13:52:12.720Z,20.50
2022-09-09T13:54:42.952Z,20.50
2022-09-09T13:57:18.429Z,20.50
2022-09-09T14:00:04.047Z,20.60
2022-09-09T14:02:33.016Z,20.40
2022-09-09T14:05:01.004Z,20.40
2022-09-09T14:07:29.346Z,20.10
2022-09-09T14:09:57.487Z,20.10
2022-09-09T14:12:25.933Z,19.80
2022-09-09T14:14:55.241Z,19.70
2022-09-09T14:17:23.888Z,19.80
2022-09-09T14:19:51.820Z,19.80
2022-09-09T14:22:19.825Z,19.70
2022-09-09T14:24:48.038Z,19.80
2022-09-09T14:27:16.169Z,19.90
2022-09-09T14:29:45.056Z,20.00
2022-09-09T14:32:14.688Z,20.10
2022-09-09T14:34:42.653Z,20.30
2022-09-09T14:37:10.625Z,20.50
2022-09-09T14:39:38.624Z,20.70
2022-09-09T14:42:07.776Z,20.50
2022-09-09T14:44:35.721Z,20.50
2022-09-09T14:47:03.723Z,20.30
2022-09-09T14:49:33.067Z,20.40
2022-09-09T14:52:01.154Z,20.30
2022-09-09T14:54:29.229Z,20.30
2022-09-09T14:56:58.076Z,20.20
2022-09-09T14:59:26.401Z,20.20
2022-09-09T15:01:54.879Z,20.00
2022-09-09T15:04:23.021Z,20.00
2022-09-09T15:06:54.223Z,20.00
2022-09-09T15:09:22.542Z,20.00
2022-09-09T15:11:51.448Z,19.90
2022-09-09T15:14:22.527Z,19.90
2022-09-09T15:16:53.405Z,19.80
2022-09-09T15:19:21.579Z,19.80
2022-09-09T15:21:49.867Z,19.90
2022-09-09T15:24:19.422Z,20.10
2022-09-09T15:26:48.746Z,20.00
2022-09-09T15:29:16.896Z,20.00
2022-09-09T15:31:45.059Z,19.90
2022-09-09T15:34:14.624Z,20.00
2022-09-09T15:36:44.415Z,19.80
2022-09-09T15:39:16.478Z,19.80
2022-09-09T15:41:46.631Z,19.80
2022-09-09T15:44:14.779Z,19.70
2022-09-09T15:46:44.610Z,19.80
2022-09-09T15:49:20.092Z,19.60
2022-09-09T15:51:53.483Z,19.70
2022-09-09T15:54:24.768Z,19.60
2022-09-09T15:56:56.970Z,19.50
2022-09-09T15:59:25.826Z,19.60
2022-09-09T16:01:55.893Z,19.70
2022-09-09T16:04:26.085Z,19.60
2022-09-09T16:06:55.628Z,19.70
2022-09-09T16:09:24.091Z,19.70
2022-09-09T16:11:54.155Z,19.60
2022-09-09T16:14:22.764Z,19.70
2022-09-09T16:16:50.912Z,19.70
2022-09-09T16:19:19.068Z,19.80
2022-09-09T16:21:50.233Z,19.70
2022-09-09T16:24:20.661Z,19.60
2022-09-09T16:26:56.230Z,19.80
2022-09-09T16:29:27.092Z,19.80
2022-09-09T16:31:58.834Z,19.90
2022-09-09T16:34:28.468Z,19.70
2022-09-09T16:36:57.103Z,19.60
2022-09-09T16:39:25.428Z,19.60
2022-09-09T16:41:54.785Z,19.50
2022-09-09T16:44:22.825Z,19.50
2022-09-09T16:46:58.169Z,19.40
2022-09-09T16:49:28.171Z,19.20
2022-09-09T16:51:58.961Z,19.20
2022-09-09T16:54:27.849Z,19.20
2022-09-09T16:56:57.209Z,19.10
2022-09-09T16:59:25.634Z,19.10
2022-09-09T17:01:54.472Z,19.10
2022-09-09T17:04:29.475Z,18.90
2022-09-09T17:06:58.206Z,18.90
2022-09-09T17:09:30.056Z,18.90
2022-09-09T17:11:59.984Z,18.80
2022-09-09T17:14:27.973Z,18.70
2022-09-09T17:16:55.991Z,18.80
2022-09-09T17:19:24.088Z,18.90
2022-09-09T17:22:15.638Z,18.60
2022-09-09T17:24:41.315Z,18.50
2022-09-09T17:27:10.711Z,18.20
2022-09-09T17:29:38.811Z,18.30
2022-09-09T17:32:08.076Z,18.30
2022-09-09T17:34:37.821Z,18.30
2022-09-09T17:37:09.532Z,18.30
2022-09-09T17:39:37.812Z,18.10
2022-09-09T17:42:08.386Z,18.00
2022-09-09T17:44:37.990Z,17.80
2022-09-09T17:47:07.103Z,17.90
2022-09-09T17:49:35.498Z,17.70
2022-09-09T17:52:04.240Z,17.70
2022-09-09T17:54:33.880Z,17.70
2022-09-09T17:57:01.903Z,17.50
2022-09-09T17:59:30.010Z,17.40
2022-09-09T18:01:59.496Z,17.60
2022-09-09T18:04:27.501Z,17.80
2022-09-09T18:06:56.338Z,17.80
2022-09-09T18:09:27.033Z,17.90
2022-09-09T18:11:57.488Z,17.80
2022-09-09T18:14:30.114Z,17.70
2022-09-09T18:17:00.800Z,17.60
2022-09-09T18:19:32.823Z,17.50
2022-09-09T18:22:02.513Z,17.40
2022-09-09T18:24:32.839Z,17.40
2022-09-09T18:27:01.060Z,17.30
2022-09-09T18:29:29.791Z,17.30
2022-09-09T18:31:59.198Z,17.20
2022-09-09T18:34:28.608Z,17.00
2022-09-09T18:36:57.422Z,17.20
2022-09-09T18:39:29.161Z,17.20
2022-09-09T18:42:00.320Z,17.10
2022-09-09T18:44:32.527Z,16.90
2022-09-09T18:47:03.429Z,16.90
2022-09-09T18:49:31.502Z,16.80
2022-09-09T18:51:59.572Z,17.00
2022-09-09T18:54:31.230Z,17.00
2022-09-09T18:57:00.822Z,16.90
2022-09-09T18:59:29.782Z,16.80
2022-09-09T19:01:59.050Z,16.70
2022-09-09T19:04:28.587Z,16.70
2022-09-09T19:06:58.582Z,16.50
2022-09-09T19:09:29.527Z,16.30
2022-09-09T19:11:58.187Z,16.40
2022-09-09T19:14:26.527Z,16.40
2022-09-09T19:16:55.365Z,16.60
2022-09-09T19:19:29.570Z,16.30
2022-09-09T19:21:58.134Z,16.40
2022-09-09T19:24:28.904Z,16.40
2022-09-09T19:27:01.540Z,16.40
2022-09-09T19:29:32.524Z,16.20
2022-09-09T19:32:49.312Z,16.20
2022-09-09T19:34:52.452Z,16.20
2022-09-09T19:37:22.439Z,16.20
2022-09-09T19:39:50.813Z,16.10
2022-09-09T19:42:18.922Z,16.10
2022-09-09T19:44:47.172Z,16.10
2022-09-09T19:47:15.387Z,16.20
2022-09-09T19:49:46.990Z,16.20
2022-09-09T19:52:17.490Z,16.50
2022-09-09T19:54:45.746Z,16.20
2022-09-09T19:57:13.862Z,16.20
2022-09-09T19:59:41.804Z,16.20
2022-09-09T20:02:11.925Z,16.30
2022-09-09T20:04:40.249Z,16.10
2022-09-09T20:07:08.828Z,15.80
2022-09-09T20:09:38.169Z,15.90
2022-09-09T20:12:06.913Z,15.80
2022-09-09T20:14:39.247Z,15.90
2022-09-09T20:17:07.949Z,15.90
2022-09-09T20:19:38.683Z,16.10
2022-09-09T20:22:06.952Z,15.80
2022-09-09T20:24:36.873Z,15.80
2022-09-09T20:27:07.971Z,16.00
2022-09-09T20:29:37.371Z,16.10
2022-09-09T20:32:06.648Z,15.90
2022-09-09T20:34:34.714Z,15.80
2022-09-09T20:37:02.840Z,15.70
2022-09-09T20:39:30.998Z,15.70
2022-09-09T20:41:58.973Z,15.70
2022-09-09T20:44:29.647Z,15.70
2022-09-09T20:47:02.852Z,15.80
2022-09-09T20:49:30.884Z,15.70
2022-09-09T20:51:59.726Z,15.40
2022-09-09T20:54:30.148Z,15.50
2022-09-09T20:56:59.732Z,15.50
2022-09-09T20:59:30.897Z,15.60
2022-09-09T21:02:00.781Z,15.40
2022-09-09T21:04:29.372Z,15.30
2022-09-09T21:06:57.366Z,15.20
2022-09-09T21:09:25.516Z,15.20
2022-09-09T21:11:56.636Z,15.10
2022-09-09T21:14:24.943Z,14.90
2022-09-09T21:16:55.027Z,15.00
2022-09-09T21:19:23.121Z,14.80
2022-09-09T21:21:51.328Z,14.80
2022-09-09T21:24:19.372Z,14.70
2022-09-09T21:26:47.371Z,14.70
2022-09-09T21:29:15.320Z,14.60
2022-09-09T21:31:44.066Z,14.60
2022-09-09T21:34:15.322Z,14.50
2022-09-09T21:36:43.338Z,14.40
2022-09-09T21:39:11.333Z,14.40
2022-09-09T21:41:39.937Z,14.40
2022-09-09T21:44:09.026Z,14.40
2022-09-09T21:46:37.525Z,14.40
2022-09-09T21:49:05.637Z,14.30
2022-09-09T21:51:34.961Z,14.30
2022-09-09T21:54:02.965Z,14.30
2022-09-09T21:56:31.306Z,14.20
2022-09-09T21:59:02.252Z,14.20
2022-09-09T22:01:33.016Z,14.20
2022-09-09T22:04:01.888Z,14.20
2022-09-09T22:06:30.025Z,14.30
2022-09-09T22:09:00.522Z,14.20
2022-09-09T22:11:29.698Z,14.20
2022-09-09T22:13:58.450Z,14.30
2022-09-09T22:16:26.596Z,14.40
2022-09-09T22:18:57.764Z,14.40
2022-09-09T22:21:28.030Z,14.40
2022-09-09T22:23:59.499Z,14.40
2022-09-09T22:26:31.685Z,14.40
2022-09-09T22:28:59.952Z,14.30
2022-09-09T22:31:29.312Z,14.30
2022-09-09T22:33:57.677Z,14.30
2022-09-09T22:36:27.104Z,14.30
2022-09-09T22:38:55.900Z,14.30
2022-09-09T22:41:25.942Z,14.20
2022-09-09T22:43:53.916Z,14.40
2022-09-09T22:46:22.656Z,14.30
2022-09-09T22:48:50.744Z,14.30
2022-09-09T22:51:18.783Z,14.30
2022-09-09T22:53:47.706Z,14.20
2022-09-09T22:56:18.509Z,14.20
2022-09-09T22:58:49.870Z,14.20
2022-09-09T23:01:21.192Z,14.20
2022-09-09T23:03:50.862Z,14.20
2022-09-09T23:06:22.905Z,14.30
2022-09-09T23:08:55.696Z,14.20
2022-09-09T23:11:26.270Z,14.20
2022-09-09T23:13:57.945Z,14.20
2022-09-09T23:16:29.850Z,14.30
2022-09-09T23:18:57.832Z,14.20
2022-09-09T23:21:28.119Z,14.20
2022-09-09T23:23:58.260Z,14.30
2022-09-09T23:26:29.118Z,14.30
2022-09-09T23:29:00.429Z,14.30
2022-09-09T23:31:31.149Z,14.30
2022-09-09T23:34:01.164Z,14.30
2022-09-09T23:36:32.651Z,14.30
2022-09-09T23:39:04.901Z,14.40
2022-09-09T23:41:35.585Z,14.30
2022-09-09T23:44:05.988Z,14.40
2022-09-09T23:46:35.871Z,14.40
2022-09-09T23:49:04.553Z,14.40
2022-09-09T23:51:34.742Z,14.50
2022-09-09T23:54:04.915Z,14.50
2022-09-09T23:56:37.025Z,14.50
2022-09-09T23:59:07.075Z,14.40
